sensor_id;sensor_type;location;lat;lon;timestamp;P1;durP1;ratioP1;P2;durP2;ratioP2
40807;SDS011;26523;52.504;13.498;2022-07-18T00:00:15;7.07;;;2.92;;
40807;SDS011;26523;52.504;13.498;2022-07-18T00:02:41;4.25;;;2.28;;
40807;SDS011;26523;52.504;13.498;2022-07-18T00:05:06;7.35;;;2.65;;
40807;SDS011;26523;52.504;13.498;2022-07-18T00:07:32;7.90;;;3.15;;
40807;SDS011;26523;52.504;13.498;2022-07-18T00:09:58;6.55;;;2.85;;
40807;SDS011;26523;52.504;13.498;2022-07-18T00:12:24;8.15;;;2.70;;
40807;SDS011;26523;52.504;13.498;2022-07-18T00:14:50;6.57;;;2.85;;
40807;SDS011;26523;52.504;13.498;2022-07-18T00:17:15;7.07;;;3.22;;
40807;SDS011;26523;52.504;13.498;2022-07-18T00:19:41;7.05;;;2.88;;
40807;SDS011;26523;52.504;13.498;2022-07-18T00:22:07;5.45;;;2.30;;
40807;SDS011;26523;52.504;13.498;2022-07-18T00:24:33;4.88;;;2.50;;
40807;SDS011;26523;52.504;13.498;2022-07-18T00:26:59;8.95;;;2.90;;
40807;SDS011;26523;52.504;13.498;2022-07-18T00:29:25;9.88;;;3.08;;
40807;SDS011;26523;52.504;13.498;2022-07-18T00:31:51;7.05;;;2.67;;
40807;SDS011;26523;52.504;13.498;2022-07-18T00:34:17;5.40;;;2.47;;
40807;SDS011;26523;52.504;13.498;2022-07-18T00:36:43;6.15;;;2.63;;
40807;SDS011;26523;52.504;13.498;2022-07-18T00:39:08;7.53;;;2.55;;
40807;SDS011;26523;52.504;13.498;2022-07-18T00:41:34;7.20;;;2.95;;
40807;SDS011;26523;52.504;13.498;2022-07-18T00:44:00;7.20;;;2.45;;
40807;SDS011;26523;52.504;13.498;2022-07-18T00:46:26;8.70;;;2.28;;
40807;SDS011;26523;52.504;13.498;2022-07-18T00:48:52;9.63;;;2.75;;
40807;SDS011;26523;52.504;13.498;2022-07-18T00:51:18;8.18;;;2.42;;
40807;SDS011;26523;52.504;13.498;2022-07-18T00:53:44;4.15;;;2.10;;
40807;SDS011;26523;52.504;13.498;2022-07-18T00:56:11;5.93;;;2.60;;
40807;SDS011;26523;52.504;13.498;2022-07-18T00:58:38;8.48;;;2.65;;
40807;SDS011;26523;52.504;13.498;2022-07-18T01:01:03;5.97;;;2.45;;
40807;SDS011;26523;52.504;13.498;2022-07-18T01:06:13;9.77;;;2.75;;
40807;SDS011;26523;52.504;13.498;2022-07-18T01:08:41;7.68;;;2.33;;
40807;SDS011;26523;52.504;13.498;2022-07-18T01:11:08;6.15;;;2.78;;
40807;SDS011;26523;52.504;13.498;2022-07-18T01:13:34;6.50;;;2.97;;
40807;SDS011;26523;52.504;13.498;2022-07-18T01:16:00;5.68;;;2.17;;
40807;SDS011;26523;52.504;13.498;2022-07-18T01:18:26;6.15;;;2.67;;
40807;SDS011;26523;52.504;13.498;2022-07-18T01:20:52;8.05;;;2.28;;
40807;SDS011;26523;52.504;13.498;2022-07-18T01:23:17;6.82;;;2.50;;
40807;SDS011;26523;52.504;13.498;2022-07-18T01:25:43;4.75;;;2.10;;
40807;SDS011;26523;52.504;13.498;2022-07-18T01:28:09;4.82;;;2.13;;
40807;SDS011;26523;52.504;13.498;2022-07-18T01:30:34;6.03;;;2.60;;
40807;SDS011;26523;52.504;13.498;2022-07-18T01:33:01;6.95;;;2.40;;
40807;SDS011;26523;52.504;13.498;2022-07-18T01:35:28;5.95;;;2.08;;
40807;SDS011;26523;52.504;13.498;2022-07-18T01:37:55;4.57;;;2.10;;
40807;SDS011;26523;52.504;13.498;2022-07-18T01:40:22;5.03;;;2.15;;
40807;SDS011;26523;52.504;13.498;2022-07-18T01:42:48;5.85;;;2.22;;
40807;SDS011;26523;52.504;13.498;2022-07-18T01:45:14;7.07;;;2.33;;
40807;SDS011;26523;52.504;13.498;2022-07-18T01:47:42;6.63;;;2.40;;
40807;SDS011;26523;52.504;13.498;2022-07-18T01:50:08;4.88;;;2.05;;
40807;SDS011;26523;52.504;13.498;2022-07-18T01:52:35;8.43;;;2.45;;
40807;SDS011;26523;52.504;13.498;2022-07-18T01:55:01;5.43;;;2.17;;
40807;SDS011;26523;52.504;13.498;2022-07-18T01:57:28;5.72;;;2.25;;
40807;SDS011;26523;52.504;13.498;2022-07-18T01:59:53;6.95;;;2.05;;
40807;SDS011;26523;52.504;13.498;2022-07-18T02:02:19;3.42;;;1.70;;
40807;SDS011;26523;52.504;13.498;2022-07-18T02:04:45;6.53;;;1.80;;
40807;SDS011;26523;52.504;13.498;2022-07-18T02:07:30;4.82;;;2.25;;
40807;SDS011;26523;52.504;13.498;2022-07-18T02:10:03;5.93;;;2.30;;
40807;SDS011;26523;52.504;13.498;2022-07-18T02:12:31;3.80;;;2.17;;
40807;SDS011;26523;52.504;13.498;2022-07-18T02:14:56;6.57;;;2.08;;
40807;SDS011;26523;52.504;13.498;2022-07-18T02:17:22;4.75;;;2.42;;
40807;SDS011;26523;52.504;13.498;2022-07-18T02:19:48;6.97;;;2.60;;
40807;SDS011;26523;52.504;13.498;2022-07-18T02:22:13;7.00;;;2.00;;
40807;SDS011;26523;52.504;13.498;2022-07-18T02:24:39;6.28;;;2.10;;
40807;SDS011;26523;52.504;13.498;2022-07-18T02:27:05;3.95;;;2.08;;
40807;SDS011;26523;52.504;13.498;2022-07-18T02:29:30;6.32;;;2.22;;
40807;SDS011;26523;52.504;13.498;2022-07-18T02:31:56;9.45;;;2.58;;
40807;SDS011;26523;52.504;13.498;2022-07-18T02:34:22;6.28;;;2.42;;
40807;SDS011;26523;52.504;13.498;2022-07-18T02:36:49;5.50;;;2.58;;
40807;SDS011;26523;52.504;13.498;2022-07-18T02:39:15;5.90;;;2.10;;
40807;SDS011;26523;52.504;13.498;2022-07-18T02:41:41;5.32;;;2.47;;
40807;SDS011;26523;52.504;13.498;2022-07-18T02:44:07;9.68;;;2.58;;
40807;SDS011;26523;52.504;13.498;2022-07-18T02:46:33;6.47;;;2.10;;
40807;SDS011;26523;52.504;13.498;2022-07-18T02:48:58;6.60;;;2.25;;
40807;SDS011;26523;52.504;13.498;2022-07-18T02:51:24;4.00;;;2.10;;
40807;SDS011;26523;52.504;13.498;2022-07-18T02:53:49;7.30;;;2.15;;
40807;SDS011;26523;52.504;13.498;2022-07-18T02:56:15;4.65;;;2.08;;
40807;SDS011;26523;52.504;13.498;2022-07-18T02:58:41;4.20;;;2.50;;
40807;SDS011;26523;52.504;13.498;2022-07-18T03:01:06;8.48;;;2.42;;
40807;SDS011;26523;52.504;13.498;2022-07-18T03:03:32;5.75;;;2.60;;
40807;SDS011;26523;52.504;13.498;2022-07-18T03:05:57;5.47;;;2.97;;
40807;SDS011;26523;52.504;13.498;2022-07-18T03:08:23;6.38;;;2.55;;
40807;SDS011;26523;52.504;13.498;2022-07-18T03:10:48;6.82;;;2.35;;
40807;SDS011;26523;52.504;13.498;2022-07-18T03:13:14;6.35;;;2.42;;
40807;SDS011;26523;52.504;13.498;2022-07-18T03:15:40;8.57;;;2.25;;
40807;SDS011;26523;52.504;13.498;2022-07-18T03:18:05;7.63;;;2.65;;
40807;SDS011;26523;52.504;13.498;2022-07-18T03:20:31;4.40;;;2.17;;
40807;SDS011;26523;52.504;13.498;2022-07-18T03:22:57;6.13;;;2.40;;
40807;SDS011;26523;52.504;13.498;2022-07-18T03:25:23;6.88;;;2.33;;
40807;SDS011;26523;52.504;13.498;2022-07-18T03:27:49;5.95;;;2.53;;
40807;SDS011;26523;52.504;13.498;2022-07-18T03:30:15;6.53;;;3.03;;
40807;SDS011;26523;52.504;13.498;2022-07-18T03:32:41;7.40;;;2.55;;
40807;SDS011;26523;52.504;13.498;2022-07-18T03:35:07;4.85;;;2.22;;
40807;SDS011;26523;52.504;13.498;2022-07-18T03:37:33;4.82;;;2.58;;
40807;SDS011;26523;52.504;13.498;2022-07-18T03:39:58;8.18;;;2.85;;
40807;SDS011;26523;52.504;13.498;2022-07-18T03:42:24;4.88;;;2.00;;
40807;SDS011;26523;52.504;13.498;2022-07-18T03:44:49;6.25;;;2.28;;
40807;SDS011;26523;52.504;13.498;2022-07-18T03:47:15;6.45;;;2.25;;
40807;SDS011;26523;52.504;13.498;2022-07-18T03:49:41;5.38;;;2.53;;
40807;SDS011;26523;52.504;13.498;2022-07-18T03:52:06;5.85;;;2.42;;
40807;SDS011;26523;52.504;13.498;2022-07-18T03:54:32;5.93;;;2.75;;
40807;SDS011;26523;52.504;13.498;2022-07-18T03:56:57;12.20;;;2.63;;
40807;SDS011;26523;52.504;13.498;2022-07-18T03:59:23;4.32;;;2.45;;
40807;SDS011;26523;52.504;13.498;2022-07-18T04:01:49;8.77;;;2.90;;
40807;SDS011;26523;52.504;13.498;2022-07-18T04:04:14;4.22;;;2.50;;
40807;SDS011;26523;52.504;13.498;2022-07-18T04:06:40;6.30;;;2.33;;
40807;SDS011;26523;52.504;13.498;2022-07-18T04:09:05;5.95;;;2.58;;
40807;SDS011;26523;52.504;13.498;2022-07-18T04:11:31;6.78;;;2.42;;
40807;SDS011;26523;52.504;13.498;2022-07-18T04:13:57;8.02;;;2.85;;
40807;SDS011;26523;52.504;13.498;2022-07-18T04:16:22;7.30;;;2.92;;
40807;SDS011;26523;52.504;13.498;2022-07-18T04:18:48;5.00;;;2.58;;
40807;SDS011;26523;52.504;13.498;2022-07-18T04:21:15;14.40;;;2.50;;
40807;SDS011;26523;52.504;13.498;2022-07-18T04:23:42;11.38;;;3.40;;
40807;SDS011;26523;52.504;13.498;2022-07-18T04:26:08;5.25;;;2.22;;
40807;SDS011;26523;52.504;13.498;2022-07-18T04:28:34;7.43;;;2.78;;
40807;SDS011;26523;52.504;13.498;2022-07-18T04:31:00;8.80;;;2.38;;
40807;SDS011;26523;52.504;13.498;2022-07-18T04:33:26;3.58;;;2.15;;
40807;SDS011;26523;52.504;13.498;2022-07-18T04:35:52;7.78;;;2.55;;
40807;SDS011;26523;52.504;13.498;2022-07-18T04:38:17;8.05;;;2.15;;
40807;SDS011;26523;52.504;13.498;2022-07-18T04:40:43;4.97;;;2.42;;
40807;SDS011;26523;52.504;13.498;2022-07-18T04:43:08;8.43;;;2.75;;
40807;SDS011;26523;52.504;13.498;2022-07-18T04:45:35;5.95;;;2.88;;
40807;SDS011;26523;52.504;13.498;2022-07-18T04:48:02;12.10;;;2.65;;
40807;SDS011;26523;52.504;13.498;2022-07-18T04:50:29;7.10;;;2.28;;
40807;SDS011;26523;52.504;13.498;2022-07-18T04:52:55;4.88;;;2.33;;
40807;SDS011;26523;52.504;13.498;2022-07-18T04:55:21;4.93;;;2.25;;
40807;SDS011;26523;52.504;13.498;2022-07-18T04:57:48;6.93;;;2.60;;
40807;SDS011;26523;52.504;13.498;2022-07-18T05:00:16;5.63;;;2.35;;
40807;SDS011;26523;52.504;13.498;2022-07-18T05:02:44;5.82;;;2.50;;
40807;SDS011;26523;52.504;13.498;2022-07-18T05:05:12;5.25;;;2.42;;
40807;SDS011;26523;52.504;13.498;2022-07-18T05:07:39;3.92;;;1.98;;
40807;SDS011;26523;52.504;13.498;2022-07-18T05:10:06;7.38;;;2.38;;
40807;SDS011;26523;52.504;13.498;2022-07-18T05:12:34;5.13;;;2.00;;
40807;SDS011;26523;52.504;13.498;2022-07-18T05:15:01;4.65;;;2.53;;
40807;SDS011;26523;52.504;13.498;2022-07-18T05:17:29;3.75;;;2.05;;
40807;SDS011;26523;52.504;13.498;2022-07-18T05:19:55;9.13;;;2.30;;
40807;SDS011;26523;52.504;13.498;2022-07-18T05:22:21;4.90;;;2.13;;
40807;SDS011;26523;52.504;13.498;2022-07-18T05:24:46;6.82;;;2.28;;
40807;SDS011;26523;52.504;13.498;2022-07-18T05:27:12;8.57;;;2.60;;
40807;SDS011;26523;52.504;13.498;2022-07-18T05:29:38;8.73;;;3.33;;
40807;SDS011;26523;52.504;13.498;2022-07-18T05:32:03;4.30;;;2.20;;
40807;SDS011;26523;52.504;13.498;2022-07-18T05:34:30;5.07;;;1.98;;
40807;SDS011;26523;52.504;13.498;2022-07-18T05:36:55;4.47;;;2.00;;
40807;SDS011;26523;52.504;13.498;2022-07-18T05:39:21;5.72;;;2.83;;
40807;SDS011;26523;52.504;13.498;2022-07-18T05:41:46;6.25;;;2.15;;
40807;SDS011;26523;52.504;13.498;2022-07-18T05:44:12;5.03;;;2.80;;
40807;SDS011;26523;52.504;13.498;2022-07-18T05:46:37;5.68;;;2.33;;
40807;SDS011;26523;52.504;13.498;2022-07-18T05:49:03;5.47;;;1.88;;
40807;SDS011;26523;52.504;13.498;2022-07-18T05:51:29;17.20;;;3.17;;
40807;SDS011;26523;52.504;13.498;2022-07-18T05:53:54;11.13;;;2.88;;
40807;SDS011;26523;52.504;13.498;2022-07-18T05:56:20;6.63;;;2.05;;
40807;SDS011;26523;52.504;13.498;2022-07-18T05:58:45;4.68;;;1.80;;
40807;SDS011;26523;52.504;13.498;2022-07-18T06:01:11;6.28;;;2.25;;
40807;SDS011;26523;52.504;13.498;2022-07-18T06:03:41;6.20;;;1.98;;
40807;SDS011;26523;52.504;13.498;2022-07-18T06:06:07;6.43;;;2.42;;
40807;SDS011;26523;52.504;13.498;2022-07-18T06:08:33;6.30;;;2.38;;
40807;SDS011;26523;52.504;13.498;2022-07-18T06:10:58;5.38;;;1.83;;
40807;SDS011;26523;52.504;13.498;2022-07-18T06:13:24;7.95;;;2.15;;
40807;SDS011;26523;52.504;13.498;2022-07-18T06:15:49;6.47;;;1.48;;
40807;SDS011;26523;52.504;13.498;2022-07-18T06:18:15;4.18;;;1.80;;
40807;SDS011;26523;52.504;13.498;2022-07-18T06:20:41;8.52;;;2.00;;
40807;SDS011;26523;52.504;13.498;2022-07-18T06:23:06;17.65;;;1.80;;
40807;SDS011;26523;52.504;13.498;2022-07-18T06:25:32;4.75;;;2.20;;
40807;SDS011;26523;52.504;13.498;2022-07-18T06:27:58;4.47;;;1.60;;
40807;SDS011;26523;52.504;13.498;2022-07-18T06:30:23;7.32;;;2.88;;
40807;SDS011;26523;52.504;13.498;2022-07-18T06:32:49;5.43;;;1.65;;
40807;SDS011;26523;52.504;13.498;2022-07-18T06:35:14;6.97;;;2.20;;
40807;SDS011;26523;52.504;13.498;2022-07-18T06:37:40;5.90;;;1.60;;
40807;SDS011;26523;52.504;13.498;2022-07-18T06:40:06;6.05;;;1.30;;
40807;SDS011;26523;52.504;13.498;2022-07-18T06:42:32;6.63;;;1.25;;
40807;SDS011;26523;52.504;13.498;2022-07-18T06:44:59;4.63;;;1.48;;
40807;SDS011;26523;52.504;13.498;2022-07-18T06:47:24;6.07;;;1.25;;
40807;SDS011;26523;52.504;13.498;2022-07-18T06:49:50;4.13;;;1.48;;
40807;SDS011;26523;52.504;13.498;2022-07-18T06:52:15;3.70;;;1.50;;
40807;SDS011;26523;52.504;13.498;2022-07-18T06:54:41;1.63;;;0.80;;
40807;SDS011;26523;52.504;13.498;2022-07-18T06:57:07;4.03;;;1.20;;
40807;SDS011;26523;52.504;13.498;2022-07-18T06:59:34;3.95;;;1.67;;
40807;SDS011;26523;52.504;13.498;2022-07-18T07:02:01;1.98;;;1.00;;
40807;SDS011;26523;52.504;13.498;2022-07-18T07:04:26;4.18;;;0.95;;
40807;SDS011;26523;52.504;13.498;2022-07-18T07:06:52;2.17;;;0.95;;
40807;SDS011;26523;52.504;13.498;2022-07-18T07:09:17;1.83;;;0.88;;
40807;SDS011;26523;52.504;13.498;2022-07-18T07:11:43;3.03;;;1.00;;
40807;SDS011;26523;52.504;13.498;2022-07-18T07:14:08;2.70;;;0.88;;
40807;SDS011;26523;52.504;13.498;2022-07-18T07:19:05;2.60;;;1.02;;
40807;SDS011;26523;52.504;13.498;2022-07-18T07:21:30;2.47;;;1.10;;
40807;SDS011;26523;52.504;13.498;2022-07-18T07:23:56;3.63;;;0.90;;
40807;SDS011;26523;52.504;13.498;2022-07-18T07:26:21;2.20;;;1.08;;
40807;SDS011;26523;52.504;13.498;2022-07-18T07:28:47;4.15;;;1.17;;
40807;SDS011;26523;52.504;13.498;2022-07-18T07:31:13;2.22;;;1.20;;
40807;SDS011;26523;52.504;13.498;2022-07-18T07:33:38;2.95;;;1.00;;
40807;SDS011;26523;52.504;13.498;2022-07-18T07:36:04;2.65;;;1.20;;
40807;SDS011;26523;52.504;13.498;2022-07-18T07:38:30;5.18;;;1.10;;
40807;SDS011;26523;52.504;13.498;2022-07-18T07:40:56;1.73;;;0.90;;
40807;SDS011;26523;52.504;13.498;2022-07-18T07:43:22;1.55;;;0.65;;
40807;SDS011;26523;52.504;13.498;2022-07-18T07:45:49;2.13;;;0.90;;
40807;SDS011;26523;52.504;13.498;2022-07-18T07:48:17;2.58;;;0.75;;
40807;SDS011;26523;52.504;13.498;2022-07-18T07:50:42;2.60;;;0.90;;
40807;SDS011;26523;52.504;13.498;2022-07-18T07:53:08;2.63;;;0.90;;
40807;SDS011;26523;52.504;13.498;2022-07-18T07:55:34;3.45;;;1.02;;
40807;SDS011;26523;52.504;13.498;2022-07-18T07:58:00;2.20;;;0.82;;
40807;SDS011;26523;52.504;13.498;2022-07-18T08:00:26;2.03;;;0.70;;
40807;SDS011;26523;52.504;13.498;2022-07-18T08:02:54;1.95;;;0.82;;
40807;SDS011;26523;52.504;13.498;2022-07-18T08:05:24;1.97;;;1.00;;
40807;SDS011;26523;52.504;13.498;2022-07-18T08:07:51;3.15;;;0.93;;
40807;SDS011;26523;52.504;13.498;2022-07-18T08:10:17;3.20;;;0.82;;
40807;SDS011;26523;52.504;13.498;2022-07-18T08:12:43;2.67;;;0.93;;
40807;SDS011;26523;52.504;13.498;2022-07-18T08:15:09;1.75;;;0.70;;
40807;SDS011;26523;52.504;13.498;2022-07-18T08:17:35;3.67;;;1.33;;
40807;SDS011;26523;52.504;13.498;2022-07-18T08:20:00;1.80;;;0.88;;
40807;SDS011;26523;52.504;13.498;2022-07-18T08:22:26;5.00;;;1.10;;
40807;SDS011;26523;52.504;13.498;2022-07-18T08:24:52;2.67;;;0.93;;
40807;SDS011;26523;52.504;13.498;2022-07-18T08:27:18;3.88;;;1.20;;
40807;SDS011;26523;52.504;13.498;2022-07-18T08:29:43;2.05;;;1.13;;
40807;SDS011;26523;52.504;13.498;2022-07-18T08:32:09;2.47;;;1.52;;
40807;SDS011;26523;52.504;13.498;2022-07-18T08:34:34;4.80;;;1.23;;
40807;SDS011;26523;52.504;13.498;2022-07-18T08:37:00;6.00;;;1.58;;
40807;SDS011;26523;52.504;13.498;2022-07-18T08:39:26;3.63;;;1.88;;
40807;SDS011;26523;52.504;13.498;2022-07-18T08:41:51;4.90;;;1.23;;
40807;SDS011;26523;52.504;13.498;2022-07-18T08:44:18;3.60;;;1.00;;
40807;SDS011;26523;52.504;13.498;2022-07-18T08:46:48;2.92;;;1.05;;
40807;SDS011;26523;52.504;13.498;2022-07-18T08:49:15;4.80;;;2.10;;
40807;SDS011;26523;52.504;13.498;2022-07-18T08:51:42;6.75;;;1.90;;
40807;SDS011;26523;52.504;13.498;2022-07-18T08:54:08;3.63;;;1.70;;
40807;SDS011;26523;52.504;13.498;2022-07-18T08:56:34;5.35;;;1.92;;
40807;SDS011;26523;52.504;13.498;2022-07-18T08:59:00;5.60;;;2.03;;
40807;SDS011;26523;52.504;13.498;2022-07-18T09:01:28;4.88;;;1.80;;
40807;SDS011;26523;52.504;13.498;2022-07-18T09:03:55;4.82;;;1.60;;
40807;SDS011;26523;52.504;13.498;2022-07-18T09:06:49;4.32;;;2.05;;
40807;SDS011;26523;52.504;13.498;2022-07-18T09:09:17;4.03;;;1.88;;
40807;SDS011;26523;52.504;13.498;2022-07-18T09:11:50;3.22;;;1.65;;
40807;SDS011;26523;52.504;13.498;2022-07-18T09:14:39;3.50;;;1.70;;
40807;SDS011;26523;52.504;13.498;2022-07-18T09:17:08;3.45;;;1.58;;
40807;SDS011;26523;52.504;13.498;2022-07-18T09:19:39;4.38;;;1.45;;
40807;SDS011;26523;52.504;13.498;2022-07-18T09:22:21;5.38;;;1.55;;
40807;SDS011;26523;52.504;13.498;2022-07-18T09:24:58;3.60;;;1.65;;
40807;SDS011;26523;52.504;13.498;2022-07-18T09:27:30;5.80;;;1.70;;
40807;SDS011;26523;52.504;13.498;2022-07-18T09:30:07;4.38;;;1.67;;
40807;SDS011;26523;52.504;13.498;2022-07-18T09:32:34;4.60;;;1.60;;
40807;SDS011;26523;52.504;13.498;2022-07-18T09:37:36;3.00;;;1.60;;
40807;SDS011;26523;52.504;13.498;2022-07-18T09:40:18;4.93;;;1.55;;
40807;SDS011;26523;52.504;13.498;2022-07-18T09:42:52;4.30;;;1.85;;
40807;SDS011;26523;52.504;13.498;2022-07-18T09:45:21;5.75;;;2.10;;
40807;SDS011;26523;52.504;13.498;2022-07-18T09:48:07;5.85;;;1.60;;
40807;SDS011;26523;52.504;13.498;2022-07-18T09:50:36;6.00;;;1.80;;
40807;SDS011;26523;52.504;13.498;2022-07-18T09:53:13;4.32;;;2.40;;
40807;SDS011;26523;52.504;13.498;2022-07-18T09:55:44;5.30;;;2.00;;
40807;SDS011;26523;52.504;13.498;2022-07-18T09:58:16;5.95;;;1.65;;
40807;SDS011;26523;52.504;13.498;2022-07-18T10:00:48;4.32;;;1.83;;
40807;SDS011;26523;52.504;13.498;2022-07-18T10:03:15;4.88;;;1.50;;
40807;SDS011;26523;52.504;13.498;2022-07-18T10:05:41;4.18;;;1.70;;
40807;SDS011;26523;52.504;13.498;2022-07-18T10:08:12;5.60;;;1.60;;
40807;SDS011;26523;52.504;13.498;2022-07-18T10:10:40;4.97;;;1.85;;
40807;SDS011;26523;52.504;13.498;2022-07-18T10:13:08;4.95;;;2.13;;
40807;SDS011;26523;52.504;13.498;2022-07-18T10:15:35;3.63;;;1.70;;
40807;SDS011;26523;52.504;13.498;2022-07-18T10:18:03;3.47;;;1.98;;
40807;SDS011;26523;52.504;13.498;2022-07-18T10:20:37;4.65;;;1.60;;
40807;SDS011;26523;52.504;13.498;2022-07-18T10:23:23;7.40;;;1.75;;
40807;SDS011;26523;52.504;13.498;2022-07-18T10:33:49;4.00;;;1.77;;
40807;SDS011;26523;52.504;13.498;2022-07-18T10:36:16;3.95;;;1.63;;
40807;SDS011;26523;52.504;13.498;2022-07-18T10:57:30;3.42;;;1.50;;
40807;SDS011;26523;52.504;13.498;2022-07-18T11:16:17;7.63;;;1.90;;
40807;SDS011;26523;52.504;13.498;2022-07-18T11:23:51;5.88;;;1.63;;
40807;SDS011;26523;52.504;13.498;2022-07-18T11:26:32;6.22;;;1.52;;
40807;SDS011;26523;52.504;13.498;2022-07-18T11:28:59;3.65;;;1.70;;
40807;SDS011;26523;52.504;13.498;2022-07-18T11:31:27;3.63;;;1.95;;
40807;SDS011;26523;52.504;13.498;2022-07-18T11:33:54;2.60;;;1.60;;
40807;SDS011;26523;52.504;13.498;2022-07-18T11:36:22;6.90;;;2.47;;
40807;SDS011;26523;52.504;13.498;2022-07-18T11:38:55;2.65;;;1.30;;
40807;SDS011;26523;52.504;13.498;2022-07-18T11:41:24;3.25;;;1.77;;
40807;SDS011;26523;52.504;13.498;2022-07-18T11:43:50;6.85;;;2.35;;
40807;SDS011;26523;52.504;13.498;2022-07-18T11:46:17;3.65;;;1.88;;
40807;SDS011;26523;52.504;13.498;2022-07-18T11:48:48;4.78;;;1.70;;
40807;SDS011;26523;52.504;13.498;2022-07-18T11:51:22;4.55;;;1.80;;
40807;SDS011;26523;52.504;13.498;2022-07-18T11:53:52;4.30;;;1.85;;
40807;SDS011;26523;52.504;13.498;2022-07-18T11:56:19;4.78;;;1.80;;
40807;SDS011;26523;52.504;13.498;2022-07-18T11:58:46;4.00;;;1.67;;
40807;SDS011;26523;52.504;13.498;2022-07-18T12:01:14;4.22;;;1.60;;
40807;SDS011;26523;52.504;13.498;2022-07-18T12:03:41;5.75;;;1.65;;
40807;SDS011;26523;52.504;13.498;2022-07-18T12:06:13;3.05;;;1.60;;
40807;SDS011;26523;52.504;13.498;2022-07-18T12:08:42;5.57;;;1.55;;
40807;SDS011;26523;52.504;13.498;2022-07-18T12:11:25;3.75;;;1.60;;
40807;SDS011;26523;52.504;13.498;2022-07-18T12:16:39;5.22;;;1.80;;
40807;SDS011;26523;52.504;13.498;2022-07-18T12:19:11;3.83;;;2.05;;
40807;SDS011;26523;52.504;13.498;2022-07-18T12:29:54;4.65;;;1.88;;
40807;SDS011;26523;52.504;13.498;2022-07-18T12:32:25;6.32;;;2.08;;
40807;SDS011;26523;52.504;13.498;2022-07-18T12:34:55;4.22;;;1.90;;
40807;SDS011;26523;52.504;13.498;2022-07-18T12:37:23;5.72;;;2.20;;
40807;SDS011;26523;52.504;13.498;2022-07-18T12:39:54;5.03;;;2.00;;
40807;SDS011;26523;52.504;13.498;2022-07-18T12:42:31;4.90;;;1.85;;
40807;SDS011;26523;52.504;13.498;2022-07-18T12:44:59;3.30;;;1.92;;
40807;SDS011;26523;52.504;13.498;2022-07-18T12:47:26;4.90;;;1.95;;
40807;SDS011;26523;52.504;13.498;2022-07-18T12:49:52;6.45;;;2.70;;
40807;SDS011;26523;52.504;13.498;2022-07-18T12:52:18;3.13;;;1.60;;
40807;SDS011;26523;52.504;13.498;2022-07-18T12:54:44;4.13;;;2.05;;
40807;SDS011;26523;52.504;13.498;2022-07-18T12:57:11;4.07;;;1.90;;
40807;SDS011;26523;52.504;13.498;2022-07-18T12:59:37;3.30;;;1.80;;
40807;SDS011;26523;52.504;13.498;2022-07-18T13:02:03;3.72;;;1.95;;
40807;SDS011;26523;52.504;13.498;2022-07-18T13:04:29;4.40;;;1.70;;
40807;SDS011;26523;52.504;13.498;2022-07-18T13:06:55;5.30;;;1.88;;
40807;SDS011;26523;52.504;13.498;2022-07-18T13:09:20;4.63;;;1.90;;
40807;SDS011;26523;52.504;13.498;2022-07-18T13:11:47;3.13;;;1.85;;
40807;SDS011;26523;52.504;13.498;2022-07-18T13:14:13;4.72;;;2.00;;
40807;SDS011;26523;52.504;13.498;2022-07-18T13:16:40;3.65;;;1.98;;
40807;SDS011;26523;52.504;13.498;2022-07-18T13:19:08;4.68;;;1.67;;
40807;SDS011;26523;52.504;13.498;2022-07-18T13:21:34;4.35;;;2.00;;
40807;SDS011;26523;52.504;13.498;2022-07-18T13:23:59;3.75;;;1.95;;
40807;SDS011;26523;52.504;13.498;2022-07-18T13:26:25;4.68;;;2.03;;
40807;SDS011;26523;52.504;13.498;2022-07-18T13:28:50;5.80;;;2.50;;
40807;SDS011;26523;52.504;13.498;2022-07-18T13:31:16;5.65;;;2.08;;
40807;SDS011;26523;52.504;13.498;2022-07-18T13:33:42;5.43;;;1.92;;
40807;SDS011;26523;52.504;13.498;2022-07-18T13:36:07;4.97;;;2.22;;
40807;SDS011;26523;52.504;13.498;2022-07-18T13:38:33;4.20;;;1.92;;
40807;SDS011;26523;52.504;13.498;2022-07-18T13:40:58;4.32;;;2.20;;
40807;SDS011;26523;52.504;13.498;2022-07-18T13:43:24;3.65;;;1.80;;
40807;SDS011;26523;52.504;13.498;2022-07-18T13:45:50;3.55;;;1.60;;
40807;SDS011;26523;52.504;13.498;2022-07-18T13:48:15;4.78;;;2.00;;
40807;SDS011;26523;52.504;13.498;2022-07-18T13:50:41;3.17;;;1.75;;
40807;SDS011;26523;52.504;13.498;2022-07-18T13:55:35;4.15;;;1.90;;
40807;SDS011;26523;52.504;13.498;2022-07-18T13:58:01;3.50;;;1.75;;
40807;SDS011;26523;52.504;13.498;2022-07-18T14:00:27;3.05;;;1.75;;
40807;SDS011;26523;52.504;13.498;2022-07-18T14:02:52;3.38;;;1.83;;
40807;SDS011;26523;52.504;13.498;2022-07-18T14:05:18;6.25;;;1.67;;
40807;SDS011;26523;52.504;13.498;2022-07-18T14:07:44;3.67;;;1.63;;
40807;SDS011;26523;52.504;13.498;2022-07-18T14:10:11;4.20;;;1.55;;
40807;SDS011;26523;52.504;13.498;2022-07-18T14:12:38;3.75;;;1.67;;
40807;SDS011;26523;52.504;13.498;2022-07-18T14:15:04;4.13;;;1.55;;
40807;SDS011;26523;52.504;13.498;2022-07-18T14:17:30;2.95;;;1.38;;
40807;SDS011;26523;52.504;13.498;2022-07-18T14:19:57;4.78;;;1.77;;
40807;SDS011;26523;52.504;13.498;2022-07-18T14:22:23;3.38;;;1.73;;
40807;SDS011;26523;52.504;13.498;2022-07-18T14:24:48;4.75;;;1.70;;
40807;SDS011;26523;52.504;13.498;2022-07-18T14:27:14;3.30;;;1.60;;
40807;SDS011;26523;52.504;13.498;2022-07-18T14:29:40;2.75;;;1.52;;
40807;SDS011;26523;52.504;13.498;2022-07-18T14:32:05;2.72;;;1.48;;
40807;SDS011;26523;52.504;13.498;2022-07-18T14:34:32;4.30;;;1.70;;
40807;SDS011;26523;52.504;13.498;2022-07-18T14:36:58;4.43;;;1.73;;
40807;SDS011;26523;52.504;13.498;2022-07-18T14:39:24;4.88;;;2.15;;
40807;SDS011;26523;52.504;13.498;2022-07-18T14:41:49;4.82;;;2.03;;
40807;SDS011;26523;52.504;13.498;2022-07-18T14:44:15;7.05;;;2.00;;
40807;SDS011;26523;52.504;13.498;2022-07-18T14:46:41;6.07;;;2.20;;
40807;SDS011;26523;52.504;13.498;2022-07-18T14:49:06;3.55;;;1.77;;
40807;SDS011;26523;52.504;13.498;2022-07-18T14:51:32;4.30;;;2.30;;
40807;SDS011;26523;52.504;13.498;2022-07-18T14:53:58;4.85;;;2.13;;
40807;SDS011;26523;52.504;13.498;2022-07-18T14:56:24;5.53;;;2.13;;
40807;SDS011;26523;52.504;13.498;2022-07-18T14:58:50;2.80;;;1.70;;
40807;SDS011;26523;52.504;13.498;2022-07-18T15:01:16;4.35;;;1.85;;
40807;SDS011;26523;52.504;13.498;2022-07-18T15:03:44;4.13;;;2.00;;
40807;SDS011;26523;52.504;13.498;2022-07-18T15:06:10;3.65;;;1.90;;
40807;SDS011;26523;52.504;13.498;2022-07-18T15:08:36;3.90;;;1.98;;
40807;SDS011;26523;52.504;13.498;2022-07-18T15:11:01;4.85;;;2.30;;
40807;SDS011;26523;52.504;13.498;2022-07-18T15:13:27;3.28;;;1.80;;
40807;SDS011;26523;52.504;13.498;2022-07-18T15:15:53;5.35;;;2.15;;
40807;SDS011;26523;52.504;13.498;2022-07-18T15:18:18;4.30;;;1.90;;
40807;SDS011;26523;52.504;13.498;2022-07-18T15:20:44;4.63;;;1.75;;
40807;SDS011;26523;52.504;13.498;2022-07-18T15:23:10;4.47;;;2.00;;
40807;SDS011;26523;52.504;13.498;2022-07-18T15:25:36;5.68;;;2.28;;
40807;SDS011;26523;52.504;13.498;2022-07-18T15:28:01;4.30;;;2.13;;
40807;SDS011;26523;52.504;13.498;2022-07-18T15:30:27;4.60;;;1.98;;
40807;SDS011;26523;52.504;13.498;2022-07-18T15:32:53;10.02;;;2.85;;
40807;SDS011;26523;52.504;13.498;2022-07-18T15:35:18;5.63;;;2.25;;
40807;SDS011;26523;52.504;13.498;2022-07-18T15:37:44;11.27;;;5.13;;
40807;SDS011;26523;52.504;13.498;2022-07-18T15:40:09;14.43;;;3.50;;